createdAt,value
2018-06-03T00:02:22.558Z,47.33
2018-06-03T00:04:50.144Z,48.43
2018-06-03T00:07:17.651Z,49.57
2018-06-03T00:09:45.319Z,48.23
2018-06-03T00:12:12.786Z,49.10
2018-06-03T00:14:40.313Z,50.47
2018-06-03T00:17:08.567Z,48.37
2018-06-03T00:19:36.886Z,45.10
2018-06-03T00:22:04.433Z,49.40
2018-06-03T00:24:31.954Z,48.00
2018-06-03T00:26:59.482Z,50.43
2018-06-03T00:29:28.681Z,48.60
2018-06-03T00:31:56.975Z,45.00
2018-06-03T00:34:25.269Z,42.23
2018-06-03T00:36:53.491Z,41.80
2018-06-03T00:39:21.021Z,46.43
2018-06-03T00:41:50.254Z,44.97
2018-06-03T00:44:17.771Z,48.63
2018-06-03T00:46:45.330Z,48.03
2018-06-03T00:49:12.839Z,44.30
2018-06-03T00:51:40.353Z,45.40
2018-06-03T00:54:07.894Z,42.57
2018-06-03T00:56:47.212Z,44.33
2018-06-03T00:59:15.512Z,40.03
2018-06-03T01:01:43.017Z,41.83
2018-06-03T01:04:10.530Z,56.27
2018-06-03T01:06:38.056Z,49.37
2018-06-03T01:09:06.358Z,53.83
2018-06-03T01:11:34.513Z,47.23
2018-06-03T01:14:02.033Z,59.97
2018-06-03T01:16:30.030Z,57.60
2018-06-03T01:18:58.350Z,73.13
2018-06-03T01:21:26.504Z,62.50
2018-06-03T01:23:54.785Z,57.23
2018-06-03T01:26:22.303Z,60.03
2018-06-03T01:28:49.818Z,51.00
2018-06-03T01:31:17.342Z,46.33
2018-06-03T01:33:45.620Z,48.33
2018-06-03T01:36:14.531Z,41.93
2018-06-03T01:38:42.118Z,46.30
2018-06-03T01:41:09.699Z,43.77
2018-06-03T01:43:37.263Z,46.80
2018-06-03T01:46:04.783Z,43.97
2018-06-03T01:48:33.144Z,49.73
2018-06-03T01:51:01.289Z,51.20
2018-06-03T01:53:29.636Z,47.43
2018-06-03T01:55:57.140Z,50.83
2018-06-03T01:58:24.657Z,46.20
2018-06-03T02:00:52.170Z,49.23
2018-06-03T02:03:19.683Z,51.57
2018-06-03T02:05:47.681Z,52.57
2018-06-03T02:08:15.964Z,55.07
2018-06-03T02:10:43.500Z,57.87
2018-06-03T02:13:11.786Z,51.53
2018-06-03T02:15:40.092Z,50.47
2018-06-03T02:18:07.610Z,58.87
2018-06-03T02:20:35.907Z,59.83
2018-06-03T02:23:03.419Z,62.23
2018-06-03T02:25:30.974Z,58.60
2018-06-03T02:27:58.500Z,63.97
2018-06-03T02:30:26.015Z,67.00
2018-06-03T02:32:53.515Z,64.00
2018-06-03T02:35:21.588Z,61.10
2018-06-03T02:37:49.128Z,70.50
2018-06-03T02:40:16.633Z,72.97
2018-06-03T02:42:44.149Z,70.37
2018-06-03T02:45:11.683Z,68.43
2018-06-03T02:47:39.984Z,70.53
2018-06-03T02:50:07.527Z,74.03
2018-06-03T02:52:35.888Z,66.23
2018-06-03T02:55:03.405Z,69.47
2018-06-03T02:57:31.674Z,69.53
2018-06-03T02:59:59.213Z,69.77
2018-06-03T03:02:26.733Z,75.27
2018-06-03T03:04:54.250Z,76.40
2018-06-03T03:07:21.759Z,73.23
2018-06-03T03:09:49.298Z,70.73
2018-06-03T03:12:16.816Z,77.17
2018-06-03T03:14:44.362Z,72.77
2018-06-03T03:17:11.854Z,74.53
2018-06-03T03:19:39.397Z,77.20
2018-06-03T03:22:06.887Z,72.07
2018-06-03T03:24:34.540Z,73.67
2018-06-03T03:27:02.515Z,72.73
2018-06-03T03:29:30.014Z,73.63
2018-06-03T03:31:58.327Z,74.37
2018-06-03T03:34:25.836Z,71.10
2018-06-03T03:36:54.168Z,76.53
2018-06-03T03:39:21.674Z,74.87
2018-06-03T03:41:49.966Z,70.73
2018-06-03T03:44:18.753Z,71.57
2018-06-03T03:46:47.044Z,71.20
2018-06-03T03:49:14.573Z,69.50
2018-06-03T03:51:42.851Z,76.03
2018-06-03T03:54:11.174Z,70.83
2018-06-03T03:56:38.695Z,69.93
2018-06-03T03:59:07.022Z,76.53
2018-06-03T04:01:34.602Z,68.33
2018-06-03T04:04:02.228Z,69.23
2018-06-03T04:06:29.764Z,65.97
2018-06-03T04:08:57.360Z,67.23
2018-06-03T04:11:25.896Z,67.67
2018-06-03T04:13:54.902Z,72.00
2018-06-03T04:16:22.424Z,68.00
2018-06-03T04:18:52.199Z,68.57
2018-06-03T04:21:19.721Z,69.17
2018-06-03T04:23:48.609Z,63.13
2018-06-03T04:26:16.897Z,68.00
2018-06-03T04:28:44.435Z,71.30
2018-06-03T04:31:12.809Z,71.60
2018-06-03T04:33:41.166Z,67.07
2018-06-03T04:36:08.752Z,70.90
2018-06-03T04:38:37.047Z,65.67
2018-06-03T04:41:04.561Z,67.63
2018-06-03T04:43:32.808Z,68.90
2018-06-03T04:46:00.309Z,66.17
2018-06-03T04:48:27.833Z,63.90
2018-06-03T04:50:55.418Z,65.30
2018-06-03T04:53:22.951Z,67.37
2018-06-03T04:55:50.462Z,69.93
2018-06-03T04:58:18.741Z,68.17
2018-06-03T05:00:46.280Z,70.40
2018-06-03T05:03:14.551Z,69.77
2018-06-03T05:05:42.071Z,68.53
2018-06-03T05:08:09.585Z,64.40
2018-06-03T05:10:37.854Z,58.27
2018-06-03T05:13:06.126Z,71.63
2018-06-03T05:15:33.640Z,68.80
2018-06-03T05:18:01.132Z,68.00
2018-06-03T05:20:28.650Z,67.63
2018-06-03T05:22:56.155Z,69.63
2018-06-03T05:25:23.698Z,63.87
2018-06-03T05:27:51.310Z,66.10
2018-06-03T05:30:18.894Z,68.40
2018-06-03T05:32:46.550Z,73.10
2018-06-03T05:35:14.059Z,72.30
2018-06-03T05:37:42.336Z,70.93
2018-06-03T05:40:10.596Z,76.07
2018-06-03T05:42:38.121Z,72.90
2018-06-03T05:45:05.627Z,69.77
2018-06-03T05:47:33.148Z,72.50
2018-06-03T05:50:00.641Z,71.67
2018-06-03T05:52:29.772Z,77.90
2018-06-03T05:54:57.343Z,73.63
2018-06-03T05:57:24.943Z,81.87
2018-06-03T05:59:52.560Z,83.57
2018-06-03T06:02:20.132Z,73.63
2018-06-03T06:04:47.663Z,70.37
2018-06-03T06:07:15.172Z,73.57
2018-06-03T06:09:42.825Z,78.30
2018-06-03T06:12:10.468Z,70.60
2018-06-03T06:14:38.089Z,76.50
2018-06-03T06:17:06.353Z,78.93
2018-06-03T06:19:33.883Z,74.47
2018-06-03T06:22:02.125Z,77.07
2018-06-03T06:24:29.657Z,67.87
2018-06-03T06:26:58.661Z,70.83
2018-06-03T06:29:26.960Z,71.73
2018-06-03T06:31:55.208Z,71.87
2018-06-03T06:34:23.493Z,69.83
2018-06-03T06:36:51.151Z,71.23
2018-06-03T06:39:18.692Z,63.67
2018-06-03T06:41:46.970Z,55.73
2018-06-03T06:44:15.275Z,52.07
2018-06-03T06:46:42.819Z,52.37
2018-06-03T06:49:11.095Z,46.50
2018-06-03T06:51:39.375Z,46.03
2018-06-03T06:54:06.861Z,50.57
2018-06-03T06:56:34.374Z,44.07
2018-06-03T06:59:02.663Z,40.90
2018-06-03T07:01:30.933Z,40.23
2018-06-03T07:03:59.197Z,42.10
2018-06-03T07:06:26.765Z,41.00
2018-06-03T07:08:54.253Z,44.07
2018-06-03T07:11:21.753Z,44.23
2018-06-03T07:13:49.285Z,36.37
2018-06-03T07:16:16.801Z,38.90
2018-06-03T07:18:45.112Z,36.60
2018-06-03T07:21:12.777Z,37.37
2018-06-03T07:23:40.290Z,39.97
2018-06-03T07:26:07.800Z,39.47
2018-06-03T07:28:35.371Z,30.97
2018-06-03T07:31:03.039Z,32.83
2018-06-03T07:33:31.113Z,31.83
2018-06-03T07:35:58.634Z,31.60
2018-06-03T07:38:26.174Z,33.33
2018-06-03T07:40:54.462Z,30.20
2018-06-03T07:43:21.974Z,30.90
2018-06-03T07:45:49.498Z,33.60
2018-06-03T07:48:17.012Z,33.80
2018-06-03T07:50:44.552Z,30.63
2018-06-03T07:53:12.068Z,28.23
2018-06-03T07:55:39.580Z,28.33
2018-06-03T07:58:07.654Z,30.40
2018-06-03T08:00:35.289Z,29.33
2018-06-03T08:03:03.487Z,33.07
2018-06-03T08:05:31.002Z,32.00
2018-06-03T08:07:58.519Z,32.00
2018-06-03T08:10:26.867Z,29.80
2018-06-03T08:12:54.426Z,30.47
2018-06-03T08:15:22.588Z,28.90
2018-06-03T08:17:50.115Z,27.03
2018-06-03T08:20:17.641Z,31.67
2018-06-03T08:22:46.533Z,31.10
2018-06-03T08:25:14.802Z,27.80
2018-06-03T08:27:42.343Z,27.00
2018-06-03T08:30:09.846Z,25.17
2018-06-03T08:32:38.073Z,27.53
2018-06-03T08:35:05.616Z,29.77
2018-06-03T08:37:33.145Z,29.50
2018-06-03T08:40:01.363Z,29.20
2018-06-03T08:42:28.893Z,23.77
2018-06-03T08:44:56.409Z,26.77
2018-06-03T08:47:24.716Z,25.33
2018-06-03T08:49:53.058Z,28.10
2018-06-03T08:52:21.375Z,29.63
2018-06-03T08:54:48.949Z,25.03
2018-06-03T08:57:16.457Z,26.17
2018-06-03T08:59:44.739Z,26.60
2018-06-03T09:02:13.045Z,26.23
2018-06-03T09:04:40.683Z,25.07
2018-06-03T09:07:08.246Z,24.50
2018-06-03T09:09:35.845Z,26.67
2018-06-03T09:12:03.365Z,27.27
2018-06-03T09:14:30.883Z,25.77
2018-06-03T09:16:58.435Z,27.80
2018-06-03T09:19:25.938Z,28.20
2018-06-03T09:21:54.822Z,30.13
2018-06-03T09:24:23.131Z,29.23
2018-06-03T09:26:50.651Z,31.17
2018-06-03T09:29:18.958Z,32.07
2018-06-03T09:31:46.469Z,32.03
2018-06-03T09:34:13.989Z,31.07
2018-06-03T09:36:41.493Z,29.73
2018-06-03T09:39:09.790Z,30.97
2018-06-03T09:41:37.341Z,29.50
2018-06-03T09:44:05.714Z,27.83
2018-06-03T09:46:33.987Z,26.77
2018-06-03T09:49:02.318Z,24.73
2018-06-03T09:51:29.825Z,22.87
2018-06-03T09:53:58.112Z,21.17
2018-06-03T09:56:26.433Z,22.10
2018-06-03T09:58:53.964Z,23.60
2018-06-03T10:01:21.541Z,22.77
2018-06-03T10:03:49.826Z,20.20
2018-06-03T10:06:17.417Z,21.57
2018-06-03T10:08:44.999Z,19.93
2018-06-03T10:11:13.259Z,20.97
2018-06-03T10:13:40.765Z,22.30
2018-06-03T10:16:08.288Z,21.80
2018-06-03T10:18:35.785Z,20.27
2018-06-03T10:21:03.329Z,21.77
2018-06-03T10:23:30.860Z,20.93
2018-06-03T10:25:59.128Z,21.33
2018-06-03T10:28:26.675Z,20.63
2018-06-03T10:30:54.181Z,19.83
2018-06-03T10:33:22.519Z,20.63
2018-06-03T10:35:50.047Z,17.03
2018-06-03T10:38:17.610Z,17.00
2018-06-03T10:40:45.266Z,16.37
2018-06-03T10:43:12.834Z,19.53
2018-06-03T10:45:40.434Z,17.03
2018-06-03T10:48:08.747Z,18.47
2018-06-03T10:50:36.278Z,13.73
2018-06-03T10:53:04.538Z,13.47
2018-06-03T10:55:32.840Z,13.67
2018-06-03T10:58:00.368Z,13.13
2018-06-03T11:00:27.884Z,11.97
2018-06-03T11:02:55.402Z,14.33
2018-06-03T11:05:23.807Z,15.50
2018-06-03T11:07:51.411Z,14.07
2018-06-03T11:10:18.933Z,16.27
2018-06-03T11:12:46.592Z,18.33
2018-06-03T11:15:14.182Z,14.67
2018-06-03T11:17:41.756Z,13.50
2018-06-03T11:20:09.370Z,14.63
2018-06-03T11:22:36.959Z,14.30
2018-06-03T11:25:04.489Z,14.83
2018-06-03T11:27:32.764Z,12.77
2018-06-03T11:30:01.135Z,12.37
2018-06-03T11:32:28.717Z,12.93
2018-06-03T11:34:56.219Z,9.93
2018-06-03T11:37:53.711Z,9.03
2018-06-03T11:40:23.047Z,9.03
2018-06-03T11:42:51.605Z,7.97
2018-06-03T11:45:20.146Z,8.47
2018-06-03T11:47:49.428Z,11.33
2018-06-03T11:50:17.964Z,8.33
2018-06-03T11:52:46.602Z,8.30
2018-06-03T11:55:15.761Z,10.43
2018-06-03T11:58:00.931Z,11.17
2018-06-03T12:00:29.561Z,9.70
2018-06-03T12:02:58.184Z,10.90
2018-06-03T12:05:26.777Z,11.93
2018-06-03T12:07:55.431Z,10.50
2018-06-03T12:10:24.034Z,13.73
2018-06-03T12:12:52.626Z,15.60
2018-06-03T12:15:21.305Z,14.23
2018-06-03T12:17:49.850Z,13.60
2018-06-03T12:20:18.436Z,14.73
2018-06-03T12:22:47.041Z,15.97
2018-06-03T12:25:16.229Z,16.33
2018-06-03T12:27:44.528Z,13.30
2018-06-03T12:30:13.214Z,16.57
2018-06-03T12:32:41.870Z,18.27
2018-06-03T12:35:10.484Z,15.70
2018-06-03T12:37:39.054Z,15.47
2018-06-03T12:40:07.640Z,16.37
2018-06-03T12:42:36.398Z,18.10
2018-06-03T12:45:05.003Z,16.90
2018-06-03T12:47:33.613Z,14.80
2018-06-03T12:50:02.203Z,17.87
2018-06-03T12:52:30.789Z,18.93
2018-06-03T12:54:59.321Z,15.97
2018-06-03T12:57:27.946Z,18.47
2018-06-03T12:59:56.496Z,19.93
2018-06-03T13:02:25.095Z,18.00
2018-06-03T13:04:54.390Z,16.83
2018-06-03T13:07:23.142Z,15.67
2018-06-03T13:09:51.751Z,14.47
2018-06-03T13:12:20.325Z,16.83
2018-06-03T13:14:48.939Z,14.50
2018-06-03T13:17:17.590Z,15.27
2018-06-03T13:19:46.159Z,16.27
2018-06-03T13:22:14.803Z,14.80
2018-06-03T13:24:43.521Z,15.73
2018-06-03T13:27:12.105Z,17.50
2018-06-03T13:29:40.678Z,14.43
2018-06-03T13:32:09.229Z,15.90
2018-06-03T13:34:37.805Z,14.13
2018-06-03T13:37:06.367Z,12.67
2018-06-03T13:39:34.929Z,11.23
2018-06-03T13:42:03.495Z,14.20
2018-06-03T13:44:32.127Z,13.93
2018-06-03T13:47:00.774Z,12.97
2018-06-03T13:49:29.381Z,13.17
2018-06-03T13:51:57.937Z,14.30
2018-06-03T13:54:26.489Z,14.37
2018-06-03T13:56:55.137Z,15.13
2018-06-03T13:59:23.905Z,14.43
2018-06-03T14:01:52.542Z,13.10
2018-06-03T14:04:21.105Z,13.93
2018-06-03T14:06:49.686Z,15.20
2018-06-03T14:09:18.279Z,14.33
2018-06-03T14:11:46.914Z,12.73
2018-06-03T14:14:15.472Z,13.20
2018-06-03T14:16:44.083Z,15.77
2018-06-03T14:19:12.632Z,11.60
2018-06-03T14:21:41.273Z,11.47
2018-06-03T14:24:09.881Z,10.10
2018-06-03T14:26:38.528Z,9.77
2018-06-03T14:29:07.081Z,11.70
2018-06-03T14:31:35.668Z,9.40
2018-06-03T14:34:04.214Z,8.03
2018-06-03T14:36:32.760Z,8.67
2018-06-03T14:39:01.407Z,8.43
2018-06-03T14:41:29.997Z,10.37
2018-06-03T14:43:58.594Z,10.93
2018-06-03T14:46:27.136Z,9.93
2018-06-03T14:48:55.711Z,10.27
2018-06-03T14:51:24.347Z,10.33
2018-06-03T14:53:52.971Z,14.23
2018-06-03T14:56:21.468Z,13.87
2018-06-03T14:58:49.976Z,11.13
2018-06-03T15:01:18.518Z,13.97
2018-06-03T15:03:47.152Z,16.10
2018-06-03T15:06:16.452Z,12.87
2018-06-03T15:08:45.004Z,14.80
2018-06-03T15:11:13.617Z,16.63
2018-06-03T15:13:42.212Z,15.50
2018-06-03T15:16:10.833Z,15.97
2018-06-03T15:18:39.418Z,15.60
2018-06-03T15:21:08.055Z,13.77
2018-06-03T15:23:36.665Z,12.67
2018-06-03T15:26:05.235Z,12.57
2018-06-03T15:28:33.787Z,12.43
2018-06-03T15:31:02.371Z,11.07
2018-06-03T15:33:30.993Z,13.07
2018-06-03T15:35:59.560Z,11.87
2018-06-03T15:38:28.226Z,15.07
2018-06-03T15:40:56.809Z,12.77
2018-06-03T15:43:25.423Z,12.47
2018-06-03T15:45:54.013Z,9.93
2018-06-03T15:48:22.723Z,9.93
2018-06-03T15:50:52.040Z,8.87
2018-06-03T15:53:20.612Z,10.07
2018-06-03T15:55:49.202Z,8.97
2018-06-03T15:58:17.791Z,9.73
2018-06-03T16:00:46.446Z,11.43
2018-06-03T16:03:15.796Z,11.87
2018-06-03T16:05:44.390Z,11.57
2018-06-03T16:08:12.954Z,10.77
2018-06-03T16:10:41.527Z,14.47
2018-06-03T16:13:10.179Z,11.93
2018-06-03T16:15:38.893Z,13.53
2018-06-03T16:18:07.552Z,12.47
2018-06-03T16:20:36.121Z,12.73
2018-06-03T16:23:04.856Z,10.63
2018-06-03T16:25:33.491Z,9.07
2018-06-03T16:28:02.114Z,14.70
2018-06-03T16:30:30.751Z,12.07
2018-06-03T16:32:59.317Z,11.23
2018-06-03T16:35:28.140Z,9.53
2018-06-03T16:37:56.802Z,10.30
2018-06-03T16:40:25.326Z,8.83
2018-06-03T16:42:53.569Z,7.97
2018-06-03T16:45:22.160Z,7.87
2018-06-03T16:47:50.882Z,8.60
2018-06-03T16:50:20.220Z,7.90
2018-06-03T16:52:48.818Z,9.30
2018-06-03T16:55:17.424Z,9.40
2018-06-03T16:57:46.125Z,10.67
2018-06-03T17:00:14.351Z,11.10
2018-06-03T17:02:42.877Z,9.53
2018-06-03T17:05:11.515Z,9.30
2018-06-03T17:07:40.102Z,8.97
2018-06-03T17:10:08.727Z,10.23
2018-06-03T17:12:37.317Z,9.73
2018-06-03T17:15:05.908Z,10.40
2018-06-03T17:17:34.504Z,11.57
2018-06-03T17:20:03.139Z,10.57
2018-06-03T17:22:31.731Z,10.00
2018-06-03T17:25:00.404Z,10.50
2018-06-03T17:27:30.445Z,11.03
2018-06-03T17:29:58.966Z,10.50
2018-06-03T17:32:28.308Z,10.73
2018-06-03T17:34:56.952Z,11.10
2018-06-03T17:37:25.546Z,10.50
2018-06-03T17:39:54.157Z,10.17
2018-06-03T17:42:22.710Z,13.90
2018-06-03T17:44:51.289Z,9.07
2018-06-03T17:47:19.793Z,8.27
2018-06-03T17:49:48.399Z,9.20
2018-06-03T17:52:16.964Z,9.43
2018-06-03T17:54:45.550Z,11.73
2018-06-03T17:57:14.079Z,10.37
2018-06-03T17:59:42.668Z,8.80
2018-06-03T18:02:11.256Z,12.10
2018-06-03T18:04:39.778Z,8.20
2018-06-03T18:07:08.490Z,10.00
2018-06-03T18:09:37.081Z,10.80
2018-06-03T18:12:05.723Z,8.93
2018-06-03T18:14:34.259Z,9.50
2018-06-03T18:17:02.915Z,9.47
2018-06-03T18:19:31.061Z,9.30
2018-06-03T18:21:59.724Z,10.33
2018-06-03T18:24:28.311Z,8.70
2018-06-03T18:26:56.855Z,9.00
2018-06-03T18:29:25.446Z,12.50
2018-06-03T18:31:54.066Z,8.83
2018-06-03T18:34:22.625Z,8.30
2018-06-03T18:36:51.228Z,9.63
2018-06-03T18:39:19.888Z,8.30
2018-06-03T18:41:48.423Z,8.47
2018-06-03T18:44:16.972Z,8.43
2018-06-03T18:46:45.534Z,9.33
2018-06-03T18:49:14.111Z,8.93
2018-06-03T18:51:42.692Z,10.40
2018-06-03T18:54:11.477Z,11.10
2018-06-03T18:56:39.704Z,10.67
2018-06-03T18:59:08.348Z,10.23
2018-06-03T19:01:36.914Z,12.50
2018-06-03T19:04:05.864Z,17.83
2018-06-03T19:06:34.459Z,10.43
2018-06-03T19:09:03.160Z,10.87
2018-06-03T19:11:31.759Z,9.87
2018-06-03T19:14:00.391Z,12.00
2018-06-03T19:16:28.990Z,13.67
2018-06-03T19:18:57.672Z,11.27
2018-06-03T19:21:26.316Z,15.03
2018-06-03T19:23:54.922Z,14.67
2018-06-03T19:26:23.593Z,16.10
2018-06-03T19:28:52.246Z,14.07
2018-06-03T19:31:20.998Z,13.87
2018-06-03T19:33:49.619Z,8.60
2018-06-03T19:36:18.301Z,10.10
2018-06-03T19:38:46.906Z,14.40
2018-06-03T19:41:15.532Z,10.77
2018-06-03T19:43:44.176Z,11.63
2018-06-03T19:46:12.860Z,12.43
2018-06-03T19:48:41.457Z,12.80
2018-06-03T19:51:10.607Z,8.87
2018-06-03T19:53:39.313Z,11.10
2018-06-03T19:56:08.023Z,14.40
2018-06-03T19:58:36.660Z,12.00
2018-06-03T20:01:05.337Z,18.97
2018-06-03T20:03:34.078Z,11.57
2018-06-03T20:06:02.767Z,11.93
2018-06-03T20:08:31.445Z,14.67
2018-06-03T20:11:00.083Z,10.10
2018-06-03T20:13:28.800Z,10.80
2018-06-03T20:15:57.520Z,12.63
2018-06-03T20:18:26.229Z,12.57
2018-06-03T20:20:54.832Z,12.43
2018-06-03T20:23:23.490Z,12.87
2018-06-03T20:25:52.226Z,11.30
2018-06-03T20:28:20.846Z,13.03
2018-06-03T20:30:49.554Z,14.23
2018-06-03T20:33:18.345Z,11.17
2018-06-03T20:35:47.668Z,11.63
2018-06-03T20:38:16.339Z,19.80
2018-06-03T20:40:44.969Z,14.47
2018-06-03T20:43:13.657Z,12.47
2018-06-03T20:45:42.456Z,12.03
2018-06-03T20:48:11.236Z,15.87
2018-06-03T20:50:39.967Z,13.17
2018-06-03T20:53:08.691Z,13.47
2018-06-03T20:55:37.360Z,13.40
2018-06-03T20:58:06.078Z,16.63
2018-06-03T21:00:34.771Z,17.17
2018-06-03T21:03:04.057Z,16.37
2018-06-03T21:05:32.680Z,18.23
2018-06-03T21:08:01.368Z,16.33
2018-06-03T21:10:30.106Z,17.77
2018-06-03T21:12:58.831Z,17.03
2018-06-03T21:15:27.512Z,16.37
2018-06-03T21:17:56.857Z,19.90
2018-06-03T21:20:25.495Z,17.03
2018-06-03T21:22:54.249Z,19.43
2018-06-03T21:25:23.025Z,18.50
2018-06-03T21:27:51.686Z,17.47
2018-06-03T21:30:20.381Z,18.93
2018-06-03T21:32:49.117Z,21.10
2018-06-03T21:35:17.771Z,21.00
2018-06-03T21:37:46.407Z,21.17
2018-06-03T21:40:15.037Z,21.43
2018-06-03T21:42:43.782Z,19.47
2018-06-03T21:45:12.399Z,22.23
2018-06-03T21:47:41.070Z,20.63
2018-06-03T21:50:09.782Z,20.17
2018-06-03T21:52:38.461Z,22.87
2018-06-03T21:55:07.107Z,20.60
2018-06-03T21:57:35.827Z,25.77
2018-06-03T22:00:05.098Z,24.67
2018-06-03T22:02:33.781Z,21.50
2018-06-03T22:05:02.506Z,26.53
2018-06-03T22:07:31.154Z,24.20
2018-06-03T22:10:00.573Z,21.67
2018-06-03T22:12:29.324Z,21.13
2018-06-03T22:14:58.141Z,21.10
2018-06-03T22:17:26.773Z,23.50
2018-06-03T22:19:55.384Z,25.30
2018-06-03T22:22:24.078Z,24.43
2018-06-03T22:24:52.740Z,26.20
2018-06-03T22:27:21.373Z,26.93
2018-06-03T22:29:49.993Z,27.10
2018-06-03T22:32:18.655Z,27.47
2018-06-03T22:34:47.312Z,28.20
2018-06-03T22:37:16.557Z,28.00
2018-06-03T22:39:45.158Z,24.90
2018-06-03T22:42:13.823Z,24.03
2018-06-03T22:44:42.502Z,28.70
2018-06-03T22:47:11.117Z,29.70
2018-06-03T22:49:39.720Z,28.37
2018-06-03T22:52:08.439Z,25.70
2018-06-03T22:54:37.166Z,27.10
2018-06-03T22:57:42.612Z,27.30
2018-06-03T23:00:11.362Z,28.67
2018-06-03T23:02:43.269Z,30.50
2018-06-03T23:05:11.942Z,28.30
2018-06-03T23:07:40.559Z,28.53
2018-06-03T23:10:09.426Z,29.43
2018-06-03T23:12:38.176Z,32.07
2018-06-03T23:15:06.851Z,27.40
2018-06-03T23:17:36.821Z,33.00
2018-06-03T23:20:05.494Z,35.43
2018-06-03T23:22:34.178Z,32.97
2018-06-03T23:25:02.905Z,32.53
2018-06-03T23:27:31.705Z,34.83
2018-06-03T23:30:00.327Z,30.87
2018-06-03T23:32:29.010Z,33.70
2018-06-03T23:34:57.662Z,37.00
2018-06-03T23:37:26.315Z,36.63
2018-06-03T23:39:55.700Z,35.53
2018-06-03T23:42:24.398Z,38.70
2018-06-03T23:44:53.100Z,38.97
2018-06-03T23:47:21.795Z,42.07
2018-06-03T23:49:51.266Z,42.53
2018-06-03T23:52:19.853Z,40.50
2018-06-03T23:54:48.634Z,41.63
2018-06-03T23:57:17.340Z,41.97
2018-06-03T23:59:46.778Z,40.60
